Time;durP1;ratioP1;P1;durP2;ratioP2;P2;SDS_P1;SDS_P2;PMS_P1;PMS_P2;Temp;Humidity;BMP_temperature;BMP_pressure;BME280_temperature;BME280_humidity;BME280_pressure;Samples;Min_cycle;Max_cycle;Signal;HPM_P1;HPM_P2
2021/03/21 00:00:09;;;;;;;9.40;7.57;;;1.20;41.90;;;;;;5029127;28;20616;-77
2021/03/21 00:02:35;;;;;;;10.10;7.30;;;1.10;41.90;;;;;;5042929;28;20459;-77
2021/03/21 00:05:03;;;;;;;8.60;7.10;;;1.10;42.00;;;;;;5029340;28;20491;-75
2021/03/21 00:07:29;;;;;;;9.53;7.73;;;1.10;42.20;;;;;;5036949;28;20474;-76
2021/03/21 00:09:56;;;;;;;8.30;6.90;;;1.00;42.20;;;;;;5040547;28;20524;-77
2021/03/21 00:12:22;;;;;;;8.73;7.17;;;1.10;42.50;;;;;;5044348;28;20470;-76
2021/03/21 00:14:48;;;;;;;8.90;7.40;;;1.10;42.60;;;;;;5042892;28;20467;-75
2021/03/21 00:17:15;;;;;;;11.00;7.73;;;1.10;42.70;;;;;;5034336;28;20451;-77
2021/03/21 00:19:41;;;;;;;8.43;7.00;;;1.10;42.60;;;;;;5036994;28;20451;-76
2021/03/21 00:22:08;;;;;;;9.23;7.67;;;1.10;42.90;;;;;;5034170;28;20483;-76
2021/03/21 00:24:35;;;;;;;9.07;7.60;;;1.20;42.90;;;;;;5037972;28;20549;-77
2021/03/21 00:27:01;;;;;;;7.20;6.50;;;1.20;43.00;;;;;;5027323;28;20473;-77
2021/03/21 00:29:27;;;;;;;9.07;7.30;;;1.20;43.10;;;;;;5037892;28;20457;-76
2021/03/21 00:31:54;;;;;;;8.20;7.40;;;1.20;42.90;;;;;;5032365;28;20471;-76
2021/03/21 00:34:21;;;;;;;10.37;7.73;;;1.20;42.80;;;;;;5033157;28;20613;-76
2021/03/21 00:36:47;;;;;;;11.07;7.43;;;1.20;43.00;;;;;;5029704;28;20526;-77
2021/03/21 00:39:14;;;;;;;8.27;7.47;;;1.20;42.90;;;;;;5035230;28;20465;-76
2021/03/21 00:41:41;;;;;;;8.80;7.73;;;1.20;43.10;;;;;;5030107;28;20466;-75
2021/03/21 00:44:07;;;;;;;9.27;8.10;;;1.10;43.10;;;;;;5032811;28;20462;-76
2021/03/21 00:46:33;;;;;;;8.43;7.60;;;1.10;43.10;;;;;;5028592;28;20459;-76
2021/03/21 00:49:00;;;;;;;10.33;7.50;;;1.10;43.20;;;;;;5036624;28;20458;-76
2021/03/21 00:51:26;;;;;;;11.30;7.90;;;1.10;43.30;;;;;;5039465;28;20466;-77
2021/03/21 00:53:53;;;;;;;9.93;7.17;;;1.00;43.20;;;;;;5034152;28;20469;-76
2021/03/21 00:56:30;;;;;;;8.53;7.63;;;1.00;43.30;;;;;;5027592;28;20474;-75
2021/03/21 00:58:58;;;;;;;8.37;6.90;;;1.00;43.30;;;;;;5025735;28;20467;-76
2021/03/21 01:01:25;;;;;;;11.83;7.80;;;1.10;43.50;;;;;;5034203;28;20446;-77
2021/03/21 01:03:51;;;;;;;9.93;8.27;;;1.10;43.60;;;;;;5028089;28;20482;-76
2021/03/21 01:06:18;;;;;;;8.33;7.53;;;1.10;43.60;;;;;;5028727;28;20812;-75
2021/03/21 01:08:44;;;;;;;8.30;7.20;;;1.10;43.60;;;;;;5031017;28;20538;-76
2021/03/21 01:11:17;;;;;;;10.13;7.43;;;1.10;43.60;;;;;;5030054;28;20454;-75
2021/03/21 01:13:45;;;;;;;7.27;6.53;;;1.10;43.70;;;;;;5032501;28;20454;-77
2021/03/21 01:16:15;;;;;;;8.43;7.60;;;1.20;43.70;;;;;;5033237;28;20466;-76
2021/03/21 01:18:42;;;;;;;8.17;7.37;;;1.20;43.80;;;;;;5036362;28;20474;-75
2021/03/21 01:21:11;;;;;;;11.23;7.67;;;1.20;43.80;;;;;;5046517;28;20477;-76
2021/03/21 01:23:38;;;;;;;8.40;6.63;;;1.20;43.90;;;;;;5038965;28;20463;-76
2021/03/21 01:26:05;;;;;;;10.00;7.43;;;1.30;43.90;;;;;;5038068;28;20928;-75
2021/03/21 01:28:34;;;;;;;8.80;7.50;;;1.30;44.00;;;;;;5037577;28;20461;-75
2021/03/21 01:31:04;;;;;;;7.40;6.70;;;1.20;43.90;;;;;;5037455;28;20446;-76
2021/03/21 01:33:31;;;;;;;8.57;7.07;;;1.20;44.10;;;;;;5031072;28;20586;-75
2021/03/21 01:35:58;;;;;;;9.63;7.17;;;1.30;44.10;;;;;;5035463;28;20473;-76
2021/03/21 01:38:25;;;;;;;7.90;7.20;;;1.20;44.00;;;;;;5037633;28;20993;-75
2021/03/21 01:40:54;;;;;;;9.90;7.77;;;1.20;43.90;;;;;;5037346;28;20462;-76
2021/03/21 01:43:32;;;;;;;8.03;7.23;;;1.30;44.20;;;;;;5041457;28;20486;-77
2021/03/21 01:45:59;;;;;;;9.03;7.10;;;1.30;44.20;;;;;;5035877;28;20455;-76
2021/03/21 01:48:38;;;;;;;9.00;7.50;;;1.30;44.20;;;;;;5040423;28;20486;-76
2021/03/21 01:51:08;;;;;;;7.90;7.10;;;1.30;44.20;;;;;;5035084;28;20988;-76
2021/03/21 01:53:38;;;;;;;6.90;6.30;;;1.30;44.10;;;;;;5040391;28;20931;-76
2021/03/21 01:56:06;;;;;;;9.63;6.80;;;1.30;44.00;;;;;;5029317;28;20502;-77
2021/03/21 01:58:35;;;;;;;8.20;7.40;;;1.30;44.00;;;;;;5034505;28;20982;-76
2021/03/21 02:01:08;;;;;;;8.00;7.20;;;1.30;44.20;;;;;;5032688;28;20521;-76
2021/03/21 02:03:35;;;;;;;8.63;7.40;;;1.40;44.50;;;;;;5036675;28;20470;-76
2021/03/21 02:06:12;;;;;;;8.27;6.60;;;1.40;44.10;;;;;;5033301;28;20976;-76
2021/03/21 02:08:47;;;;;;;9.17;7.83;;;1.40;43.80;;;;;;5033075;28;20504;-76
2021/03/21 02:11:32;;;;;;;10.80;7.00;;;1.40;44.10;;;;;;5031292;28;20463;-76
2021/03/21 02:14:07;;;;;;;8.03;6.40;;;1.30;44.10;;;;;;5039485;28;20462;-75
2021/03/21 02:16:38;;;;;;;8.23;7.30;;;1.30;44.00;;;;;;5032061;28;21063;-75
2021/03/21 02:19:30;;;;;;;10.20;7.00;;;1.30;44.10;;;;;;5039715;28;20451;-75
2021/03/21 02:22:01;;;;;;;7.20;6.30;;;1.40;44.20;;;;;;5027481;28;20857;-75
2021/03/21 02:25:07;;;;;;;8.27;6.70;;;1.30;44.20;;;;;;5035881;28;20478;-75
2021/03/21 02:28:00;;;;;;;7.03;6.30;;;1.30;44.30;;;;;;5029197;28;20451;-76
2021/03/21 02:30:31;;;;;;;8.37;7.23;;;1.30;44.20;;;;;;5034456;28;20454;-76
2021/03/21 02:33:05;;;;;;;6.97;6.27;;;1.30;44.10;;;;;;5031932;28;20486;-76
2021/03/21 02:35:36;;;;;;;7.43;6.63;;;1.30;44.20;;;;;;5034582;28;20470;-76
2021/03/21 02:38:09;;;;;;;7.23;6.53;;;1.30;44.30;;;;;;5040182;28;20443;-76
2021/03/21 02:40:41;;;;;;;7.87;6.70;;;1.30;44.40;;;;;;5034742;28;20470;-76
2021/03/21 02:43:13;;;;;;;8.73;7.47;;;1.30;44.40;;;;;;5042438;28;20442;-76
2021/03/21 02:45:45;;;;;;;8.43;6.83;;;1.30;44.50;;;;;;5038632;28;20483;-76
2021/03/21 02:48:16;;;;;;;9.00;6.70;;;1.30;44.30;;;;;;5040210;28;20508;-76
2021/03/21 02:50:48;;;;;;;9.33;6.83;;;1.40;44.40;;;;;;5035618;28;20454;-76
2021/03/21 02:53:19;;;;;;;6.33;5.63;;;1.30;44.20;;;;;;5042673;28;20541;-75
2021/03/21 02:55:48;;;;;;;7.90;6.33;;;1.40;44.20;;;;;;5031325;28;20495;-76
2021/03/21 02:58:18;;;;;;;6.30;5.70;;;1.40;44.10;;;;;;5043131;28;20865;-76
2021/03/21 03:00:50;;;;;;;8.10;6.07;;;1.40;44.20;;;;;;5049101;28;20556;-75
2021/03/21 03:03:19;;;;;;;8.90;5.87;;;1.40;44.10;;;;;;5039741;28;21241;-75
2021/03/21 03:05:50;;;;;;;7.53;6.53;;;1.50;44.20;;;;;;5034919;28;20481;-76
2021/03/21 03:08:21;;;;;;;7.57;6.13;;;1.50;44.10;;;;;;5044105;28;20527;-76
2021/03/21 03:10:50;;;;;;;10.63;5.70;;;1.50;44.10;;;;;;5047067;28;20453;-76
2021/03/21 03:13:21;;;;;;;6.93;5.60;;;1.50;43.90;;;;;;5029585;28;20802;-76
2021/03/21 03:15:49;;;;;;;6.73;5.80;;;1.50;43.80;;;;;;5034365;28;20473;-75
2021/03/21 03:18:29;;;;;;;7.70;5.83;;;1.50;43.90;;;;;;5036544;28;20458;-75
2021/03/21 03:21:04;;;;;;;8.70;5.60;;;1.50;43.90;;;;;;5031430;28;20462;-74
2021/03/21 03:23:40;;;;;;;8.87;5.47;;;1.50;43.90;;;;;;5035542;28;20470;-74
2021/03/21 03:26:10;;;;;;;6.03;5.43;;;1.50;44.00;;;;;;5048719;28;20506;-76
2021/03/21 03:28:43;;;;;;;6.30;5.33;;;1.50;43.90;;;;;;5039527;28;20569;-74
2021/03/21 03:31:16;;;;;;;5.50;5.00;;;1.50;44.00;;;;;;5037764;28;20458;-75
2021/03/21 03:33:43;;;;;;;5.17;4.67;;;1.60;44.00;;;;;;5029136;28;20525;-75
2021/03/21 03:36:13;;;;;;;7.43;5.30;;;1.50;43.70;;;;;;5031726;28;20920;-75
2021/03/21 03:38:40;;;;;;;5.77;5.27;;;1.50;43.80;;;;;;5035245;28;20455;-75
2021/03/21 03:41:09;;;;;;;6.67;5.03;;;1.60;44.00;;;;;;5039167;28;20450;-75
2021/03/21 03:43:45;;;;;;;5.57;4.83;;;1.60;44.10;;;;;;5024363;28;20833;-75
2021/03/21 03:46:17;;;;;;;5.80;5.00;;;1.60;43.90;;;;;;5029298;28;20512;-75
2021/03/21 03:48:50;;;;;;;5.83;5.10;;;1.60;43.90;;;;;;5034474;28;20548;-75
2021/03/21 03:51:26;;;;;;;6.70;4.90;;;1.60;43.90;;;;;;5030676;28;20974;-75
2021/03/21 03:54:08;;;;;;;6.23;5.07;;;1.60;43.80;;;;;;5033298;28;20451;-75
2021/03/21 03:56:44;;;;;;;7.03;5.60;;;1.60;43.90;;;;;;5039390;28;20562;-75
2021/03/21 03:59:26;;;;;;;6.83;5.00;;;1.70;43.90;;;;;;5042404;28;20520;-74
2021/03/21 04:02:02;;;;;;;5.43;4.80;;;1.70;43.90;;;;;;5038526;28;20477;-76
2021/03/21 04:04:42;;;;;;;5.70;4.93;;;1.70;43.80;;;;;;5033359;28;20461;-75
2021/03/21 04:07:16;;;;;;;5.43;4.73;;;1.70;43.80;;;;;;5035003;28;20465;-74
2021/03/21 04:09:49;;;;;;;5.60;4.80;;;1.70;43.90;;;;;;5032899;28;20451;-74
2021/03/21 04:12:19;;;;;;;6.03;5.10;;;1.70;43.80;;;;;;5029480;28;20458;-76
2021/03/21 04:14:49;;;;;;;5.43;4.80;;;1.70;43.70;;;;;;5039397;28;21013;-75
2021/03/21 04:17:20;;;;;;;6.27;4.50;;;1.80;43.90;;;;;;5031028;28;20474;-75
2021/03/21 04:19:51;;;;;;;8.03;4.93;;;1.80;43.90;;;;;;5034462;28;20521;-76
2021/03/21 04:22:22;;;;;;;5.20;4.07;;;1.70;43.60;;;;;;5027892;28;20500;-76
2021/03/21 04:24:53;;;;;;;6.53;4.80;;;1.70;43.70;;;;;;5034556;28;20451;-74
2021/03/21 04:27:23;;;;;;;6.00;4.80;;;1.70;43.80;;;;;;5032975;28;20465;-74
2021/03/21 04:29:54;;;;;;;5.60;4.47;;;1.70;43.70;;;;;;5029757;28;20447;-74
2021/03/21 04:32:26;;;;;;;5.43;4.93;;;1.80;43.90;;;;;;5031948;28;20460;-75
2021/03/21 04:34:57;;;;;;;5.63;4.60;;;1.70;43.60;;;;;;5040088;28;20459;-74
2021/03/21 04:37:24;;;;;;;5.93;4.67;;;1.70;43.70;;;;;;5030785;28;20475;-74
2021/03/21 04:39:53;;;;;;;5.40;4.90;;;1.70;43.70;;;;;;5030947;28;20454;-74
2021/03/21 04:42:24;;;;;;;4.43;4.03;;;1.80;43.70;;;;;;5038112;28;20949;-75
2021/03/21 04:44:55;;;;;;;5.10;4.43;;;1.80;43.60;;;;;;5030975;28;20454;-75
2021/03/21 04:47:26;;;;;;;5.90;4.30;;;1.80;43.60;;;;;;5033004;28;21076;-75
2021/03/21 04:49:55;;;;;;;6.70;4.90;;;1.80;43.60;;;;;;5033857;28;20470;-75
2021/03/21 04:52:30;;;;;;;5.87;4.80;;;1.80;43.50;;;;;;5031324;28;20966;-75
2021/03/21 04:54:58;;;;;;;4.90;4.23;;;1.80;43.50;;;;;;5040433;28;20512;-75
2021/03/21 04:57:32;;;;;;;5.37;4.87;;;1.80;43.70;;;;;;5037882;28;21057;-75
2021/03/21 04:59:59;;;;;;;4.93;4.43;;;1.80;43.70;;;;;;5040845;28;20475;-74
2021/03/21 05:02:32;;;;;;;6.50;4.87;;;1.80;43.70;;;;;;5037384;28;20460;-74
2021/03/21 05:05:05;;;;;;;6.33;4.60;;;1.80;43.80;;;;;;5027320;28;20533;-74
2021/03/21 05:07:37;;;;;;;7.03;4.70;;;1.90;44.00;;;;;;5031604;28;20493;-74
2021/03/21 05:10:10;;;;;;;5.60;5.17;;;1.90;43.90;;;;;;5035517;28;20833;-75
2021/03/21 05:12:42;;;;;;;6.63;4.60;;;1.80;43.90;;;;;;5033522;28;20459;-74
2021/03/21 05:15:19;;;;;;;10.70;4.93;;;1.80;43.90;;;;;;5035820;28;20498;-74
2021/03/21 05:17:56;;;;;;;5.23;4.40;;;1.90;44.10;;;;;;5035337;28;20636;-76
2021/03/21 05:20:31;;;;;;;6.23;4.87;;;1.90;44.10;;;;;;5035901;28;20455;-75
2021/03/21 05:23:11;;;;;;;5.47;4.60;;;1.90;44.20;;;;;;5027387;28;20555;-76
2021/03/21 05:25:42;;;;;;;5.93;4.80;;;1.90;44.40;;;;;;5043656;28;20443;-74
2021/03/21 05:28:15;;;;;;;4.70;4.27;;;1.80;44.20;;;;;;5040902;28;20537;-74
2021/03/21 05:30:42;;;;;;;4.57;4.10;;;1.80;44.30;;;;;;5040177;28;20465;-76
2021/03/21 05:33:09;;;;;;;5.30;4.50;;;1.90;44.50;;;;;;5042423;28;20544;-74
2021/03/21 05:35:38;;;;;;;5.93;5.17;;;1.90;44.50;;;;;;5035446;28;20554;-75
2021/03/21 05:38:22;;;;;;;5.70;4.90;;;1.90;44.30;;;;;;5028430;28;20469;-75
2021/03/21 05:41:20;;;;;;;5.10;4.60;;;2.00;44.50;;;;;;5035445;28;20541;-74
2021/03/21 05:44:30;;;;;;;5.33;4.40;;;2.00;44.50;;;;;;5028210;28;20450;-75
2021/03/21 05:47:37;;;;;;;6.67;5.10;;;2.00;44.60;;;;;;5038496;28;20489;-74
2021/03/21 05:50:42;;;;;;;6.90;4.73;;;2.00;44.70;;;;;;5034815;28;20478;-74
2021/03/21 05:54:02;;;;;;;5.07;4.57;;;2.10;44.80;;;;;;5030247;28;20515;-75
2021/03/21 05:56:54;;;;;;;5.17;4.50;;;2.10;44.70;;;;;;4986793;28;20481;-75
2021/03/21 05:59:38;;;;;;;5.87;4.93;;;2.10;44.80;;;;;;5032562;28;20554;-75
2021/03/21 06:02:20;;;;;;;5.47;4.63;;;2.10;44.70;;;;;;5030921;28;20458;-75
2021/03/21 06:05:20;;;;;;;6.00;4.30;;;2.20;44.80;;;;;;5033394;28;20454;-75
2021/03/21 06:08:18;;;;;;;6.90;5.13;;;2.20;44.80;;;;;;5035535;28;20454;-76
2021/03/21 06:11:19;;;;;;;4.77;4.27;;;2.30;44.70;;;;;;5034456;28;20469;-75
2021/03/21 06:14:21;;;;;;;7.37;4.93;;;2.30;45.00;;;;;;5033882;28;20471;-75
2021/03/21 06:17:11;;;;;;;5.80;4.80;;;2.40;44.80;;;;;;5043476;28;20615;-75
2021/03/21 06:20:10;;;;;;;5.57;5.00;;;2.40;44.80;;;;;;5038129;28;20463;-76
2021/03/21 06:23:05;;;;;;;6.20;4.87;;;2.40;44.90;;;;;;5016251;28;20471;-75
2021/03/21 06:25:54;;;;;;;5.80;4.97;;;2.40;44.80;;;;;;5036461;28;20455;-76
2021/03/21 06:28:44;;;;;;;6.37;4.57;;;2.40;44.90;;;;;;5029382;28;20796;-75
2021/03/21 06:31:42;;;;;;;8.70;5.27;;;2.40;45.10;;;;;;5033687;28;20459;-75
2021/03/21 06:34:19;;;;;;;5.87;5.00;;;2.50;45.30;;;;;;5034185;28;20505;-75
2021/03/21 06:36:51;;;;;;;5.43;4.93;;;2.50;45.30;;;;;;5037200;28;20462;-76
2021/03/21 06:39:36;;;;;;;7.80;5.20;;;2.40;45.30;;;;;;5030991;28;21009;-75
2021/03/21 06:42:33;;;;;;;8.00;6.10;;;2.40;45.60;;;;;;5024145;28;21326;-75
2021/03/21 06:45:45;;;;;;;7.07;5.57;;;2.30;45.70;;;;;;5021793;28;20549;-74
2021/03/21 06:48:28;;;;;;;7.30;6.00;;;2.40;45.90;;;;;;5028973;28;20462;-74
2021/03/21 06:51:15;;;;;;;12.30;6.40;;;2.40;46.00;;;;;;5033103;28;21035;-76
2021/03/21 06:53:48;;;;;;;7.77;5.60;;;2.50;46.10;;;;;;5031603;28;20458;-75
2021/03/21 06:56:57;;;;;;;7.90;6.30;;;2.50;46.20;;;;;;5034270;28;21070;-76
2021/03/21 06:59:56;;;;;;;9.67;6.90;;;2.50;46.50;;;;;;5037886;28;20476;-76
2021/03/21 07:03:12;;;;;;;8.70;7.47;;;2.50;46.80;;;;;;5035130;28;21273;-76
2021/03/21 07:06:26;;;;;;;7.43;6.57;;;2.60;47.00;;;;;;5040079;28;20980;-76
2021/03/21 07:09:08;;;;;;;10.10;7.60;;;2.70;47.00;;;;;;5033103;28;20539;-76
2021/03/21 07:12:17;;;;;;;9.30;7.90;;;3.00;47.40;;;;;;5035652;28;20454;-76
2021/03/21 07:15:17;;;;;;;9.60;7.20;;;3.30;47.80;;;;;;5029058;28;20547;-76
2021/03/21 07:18:22;;;;;;;9.80;8.17;;;3.40;47.30;;;;;;5026124;28;20540;-77
2021/03/21 07:21:15;;;;;;;14.47;7.97;;;3.30;47.30;;;;;;5036784;28;20494;-77
2021/03/21 07:24:33;;;;;;;10.33;7.40;;;3.40;47.20;;;;;;5029344;28;20509;-77
2021/03/21 07:27:35;;;;;;;12.90;8.07;;;3.50;47.40;;;;;;5029786;28;20488;-76
2021/03/21 07:30:04;;;;;;;16.30;8.73;;;3.50;47.50;;;;;;5025242;28;20812;-77
2021/03/21 07:33:04;;;;;;;11.10;8.90;;;3.60;47.60;;;;;;5035745;28;20508;-76
2021/03/21 07:35:54;;;;;;;11.30;9.00;;;3.50;47.90;;;;;;5041976;28;20491;-76
2021/03/21 07:38:41;;;;;;;10.87;9.17;;;3.50;48.00;;;;;;5029220;28;20465;-77
2021/03/21 07:41:14;;;;;;;11.53;8.93;;;3.60;48.20;;;;;;5032316;28;20468;-76
2021/03/21 07:44:00;;;;;;;12.03;9.40;;;3.60;48.10;;;;;;5033294;28;20497;-77
2021/03/21 07:46:46;;;;;;;10.50;8.80;;;3.70;48.00;;;;;;5025733;28;20447;-76
2021/03/21 07:49:27;;;;;;;14.53;9.20;;;3.80;48.20;;;;;;5030194;28;20501;-77
2021/03/21 07:52:15;;;;;;;11.70;8.10;;;3.70;48.10;;;;;;5035358;28;20613;-77
2021/03/21 07:54:50;;;;;;;13.63;9.83;;;3.70;48.30;;;;;;5036368;28;20592;-76
2021/03/21 07:57:23;;;;;;;12.73;10.67;;;3.60;48.40;;;;;;5036145;28;20469;-77
2021/03/21 07:59:51;;;;;;;12.50;9.33;;;3.70;48.40;;;;;;5026135;28;20447;-76
2021/03/21 08:02:22;;;;;;;10.90;9.30;;;3.70;48.40;;;;;;5033447;28;20542;-76
2021/03/21 08:04:50;;;;;;;12.33;9.80;;;3.70;48.30;;;;;;5027913;28;21059;-76
2021/03/21 08:07:21;;;;;;;11.20;9.10;;;3.70;48.40;;;;;;5030329;28;20458;-77
2021/03/21 08:09:49;;;;;;;11.73;8.97;;;3.80;48.30;;;;;;5027370;28;21136;-76
2021/03/21 08:12:35;;;;;;;11.57;9.60;;;3.80;48.40;;;;;;5034084;28;20469;-76
2021/03/21 08:15:13;;;;;;;13.40;10.03;;;3.70;48.40;;;;;;5022707;28;20455;-77
2021/03/21 08:17:46;;;;;;;11.13;8.90;;;3.80;48.40;;;;;;5036626;28;20533;-76
2021/03/21 08:20:20;;;;;;;10.70;8.90;;;3.90;48.20;;;;;;5031272;28;20454;-76
2021/03/21 08:22:47;;;;;;;12.27;10.20;;;4.00;48.50;;;;;;5033059;28;20465;-76
2021/03/21 08:25:21;;;;;;;12.00;9.13;;;4.00;48.40;;;;;;5035920;28;20455;-76
2021/03/21 08:27:50;;;;;;;11.13;9.40;;;4.10;48.20;;;;;;5042970;28;20470;-76
2021/03/21 08:30:19;;;;;;;11.87;9.03;;;4.00;48.10;;;;;;5027803;28;20537;-77
2021/03/21 08:32:56;;;;;;;12.80;10.20;;;4.10;48.20;;;;;;5030272;28;20457;-77
2021/03/21 08:35:25;;;;;;;11.40;9.33;;;4.10;48.40;;;;;;5029600;28;20878;-77
2021/03/21 08:37:53;;;;;;;15.37;10.70;;;4.20;48.30;;;;;;5032172;28;20470;-76
2021/03/21 08:40:29;;;;;;;9.90;8.80;;;4.40;48.70;;;;;;5032603;28;20452;-78
2021/03/21 08:43:10;;;;;;;12.60;10.03;;;4.00;48.20;;;;;;5026406;28;20917;-76
2021/03/21 08:45:41;;;;;;;12.73;9.23;;;3.90;48.50;;;;;;5029014;28;20486;-76
2021/03/21 08:48:30;;;;;;;12.27;9.47;;;4.10;48.70;;;;;;5037249;28;20462;-77
2021/03/21 08:51:00;;;;;;;13.40;9.60;;;4.10;48.40;;;;;;5028666;28;20484;-76
2021/03/21 08:53:35;;;;;;;14.03;9.47;;;4.20;48.70;;;;;;5030566;28;20454;-76
2021/03/21 08:56:20;;;;;;;11.90;8.87;;;4.40;48.70;;;;;;5032059;28;20508;-76
2021/03/21 08:58:48;;;;;;;14.67;9.80;;;4.50;48.70;;;;;;5034138;28;20455;-76
2021/03/21 09:01:18;;;;;;;14.93;10.13;;;4.90;48.70;;;;;;5031901;28;20974;-76
2021/03/21 09:03:45;;;;;;;13.10;9.80;;;5.00;48.50;;;;;;5037993;28;20458;-77
2021/03/21 09:06:34;;;;;;;14.57;11.27;;;4.90;48.30;;;;;;5032357;28;21011;-76
2021/03/21 09:09:15;;;;;;;14.70;10.43;;;4.70;48.70;;;;;;5028552;28;20482;-76
2021/03/21 09:11:45;;;;;;;15.77;11.57;;;4.50;49.00;;;;;;5031331;28;20451;-77
2021/03/21 09:14:17;;;;;;;14.43;10.87;;;4.60;49.70;;;;;;5030943;28;20458;-78
2021/03/21 09:17:01;;;;;;;15.80;11.60;;;4.50;50.30;;;;;;5030173;28;20501;-76
2021/03/21 09:19:31;;;;;;;17.63;11.20;;;4.50;50.80;;;;;;5030489;28;20466;-77
2021/03/21 09:21:58;;;;;;;14.40;10.77;;;4.10;51.50;;;;;;5030735;28;20462;-76
2021/03/21 09:24:28;;;;;;;16.77;11.83;;;4.10;52.50;;;;;;5028542;28;21202;-77
2021/03/21 09:27:14;;;;;;;15.60;11.60;;;4.00;54.00;;;;;;5026511;28;20504;-77
2021/03/21 09:29:43;;;;;;;15.00;12.03;;;4.00;55.30;;;;;;5029129;28;20504;-77
2021/03/21 09:32:22;;;;;;;13.87;11.40;;;3.90;56.30;;;;;;5028896;28;21136;-76
2021/03/21 09:34:57;;;;;;;16.77;12.00;;;4.00;57.40;;;;;;5032704;28;20447;-77
2021/03/21 09:37:28;;;;;;;19.15;12.20;;;3.70;59.20;;;;;;5026157;28;20472;-77
2021/03/21 09:40:01;;;;;;;14.63;11.17;;;3.80;62.30;;;;;;5026670;28;20713;-78
2021/03/21 09:42:27;;;;;;;15.80;12.23;;;3.90;63.10;;;;;;5027680;28;20797;-77
2021/03/21 09:44:54;;;;;;;14.87;11.40;;;3.70;64.90;;;;;;5026093;28;20597;-76
2021/03/21 09:47:29;;;;;;;21.00;13.27;;;3.60;65.30;;;;;;5032605;28;20451;-76
2021/03/21 09:50:09;;;;;;;17.50;12.90;;;3.50;67.00;;;;;;5033881;28;20944;-77
2021/03/21 09:52:42;;;;;;;16.80;12.73;;;3.60;68.20;;;;;;5023755;28;20486;-77
2021/03/21 09:55:23;;;;;;;14.77;12.93;;;3.70;67.60;;;;;;5030236;28;20563;-78
2021/03/21 09:58:04;;;;;;;13.77;11.80;;;3.70;67.50;;;;;;5041625;28;21062;-76
2021/03/21 10:00:33;;;;;;;14.33;11.23;;;3.80;68.30;;;;;;5032394;28;20451;-78
2021/03/21 10:03:03;;;;;;;17.40;12.70;;;3.80;68.50;;;;;;5038027;28;20517;-79
2021/03/21 10:05:36;;;;;;;15.80;12.43;;;3.70;68.80;;;;;;5043905;28;20498;-78
2021/03/21 10:08:11;;;;;;;15.93;12.80;;;3.60;70.30;;;;;;5043647;28;20460;-79
2021/03/21 10:10:41;;;;;;;16.17;12.70;;;3.70;71.20;;;;;;5043362;28;20455;-79
2021/03/21 10:13:11;;;;;;;17.70;12.47;;;3.80;71.00;;;;;;5043215;28;20859;-80
2021/03/21 10:16:18;;;;;;;16.83;12.93;;;3.90;71.00;;;;;;5037981;28;20451;-79
2021/03/21 10:18:47;;;;;;;17.63;12.23;;;3.70;70.50;;;;;;5033241;28;20465;-78
2021/03/21 10:21:30;;;;;;;17.37;13.43;;;3.60;72.40;;;;;;5033725;28;20456;-77
2021/03/21 10:24:30;;;;;;;15.43;12.10;;;3.70;72.30;;;;;;5033199;28;20471;-78
2021/03/21 10:27:35;;;;;;;17.70;13.57;;;3.50;72.20;;;;;;5033784;28;20512;-77
2021/03/21 10:30:11;;;;;;;17.50;13.20;;;3.50;72.70;;;;;;5037698;28;20482;-78
2021/03/21 10:32:40;;;;;;;15.23;12.10;;;3.60;72.90;;;;;;5041048;28;20463;-77
2021/03/21 10:35:30;;;;;;;17.03;13.07;;;3.90;73.30;;;;;;5031082;28;20466;-78
2021/03/21 10:37:59;;;;;;;14.33;12.03;;;4.10;72.70;;;;;;5031570;28;20466;-78
2021/03/21 10:40:44;;;;;;;19.57;14.07;;;4.20;72.10;;;;;;5033475;28;20455;-79
2021/03/21 10:43:35;;;;;;;15.60;12.13;;;4.20;70.90;;;;;;5038609;28;20458;-78
2021/03/21 10:46:01;;;;;;;18.53;13.23;;;4.40;70.90;;;;;;5031112;28;20448;-77
2021/03/21 10:48:51;;;;;;;20.43;13.20;;;4.80;70.30;;;;;;5033511;28;20451;-77
2021/03/21 10:51:18;;;;;;;15.03;11.67;;;4.80;69.60;;;;;;5032258;28;20447;-76
2021/03/21 10:54:24;;;;;;;14.73;11.03;;;4.70;68.80;;;;;;5045206;28;20451;-77
2021/03/21 10:57:25;;;;;;;17.07;12.43;;;4.30;68.60;;;;;;5044464;28;20647;-78
2021/03/21 11:00:18;;;;;;;15.43;11.80;;;4.40;69.40;;;;;;5030297;28;20463;-79
2021/03/21 11:02:46;;;;;;;16.93;12.73;;;4.50;69.40;;;;;;5035441;28;20455;-76
2021/03/21 11:05:28;;;;;;;15.97;12.27;;;4.40;68.90;;;;;;5039122;28;20471;-78
2021/03/21 11:08:04;;;;;;;17.10;13.37;;;4.30;68.60;;;;;;5033972;28;21084;-76
2021/03/21 11:10:33;;;;;;;15.67;12.37;;;4.10;69.00;;;;;;5032743;28;20450;-77
2021/03/21 11:12:59;;;;;;;17.93;13.67;;;4.10;69.20;;;;;;5030468;28;20459;-79
2021/03/21 11:15:35;;;;;;;14.43;12.77;;;4.40;69.20;;;;;;5032404;28;20453;-79
2021/03/21 11:18:15;;;;;;;19.27;12.60;;;4.80;68.60;;;;;;5035103;28;20509;-79
2021/03/21 11:20:41;;;;;;;18.20;12.90;;;4.90;68.10;;;;;;5039360;28;21192;-76
2021/03/21 11:23:14;;;;;;;14.73;12.40;;;4.90;68.20;;;;;;5036466;28;20496;-76
2021/03/21 11:25:42;;;;;;;16.50;12.40;;;5.10;67.10;;;;;;5038160;28;20566;-79
2021/03/21 11:28:24;;;;;;;15.30;11.83;;;5.30;67.30;;;;;;5039956;28;20460;-78
2021/03/21 11:30:52;;;;;;;15.87;12.20;;;5.30;66.30;;;;;;5042140;28;20474;-81
2021/03/21 11:33:27;;;;;;;12.93;10.20;;;5.10;65.90;;;;;;5042216;28;20449;-77
2021/03/21 11:36:19;;;;;;;16.77;11.93;;;5.10;65.40;;;;;;5041702;28;20452;-81
2021/03/21 11:38:47;;;;;;;14.47;11.37;;;5.30;65.70;;;;;;5052282;28;20481;-80
2021/03/21 11:41:24;;;;;;;13.80;11.60;;;5.50;64.90;;;;;;5060269;28;20463;-82
2021/03/21 11:43:51;;;;;;;12.23;10.40;;;5.30;64.30;;;;;;5052443;28;20549;-81
2021/03/21 11:46:28;;;;;;;14.83;10.87;;;5.20;64.80;;;;;;5060205;28;20447;-81
2021/03/21 11:48:58;;;;;;;13.70;10.53;;;5.30;64.90;;;;;;5048069;28;20447;-82
2021/03/21 11:51:26;;;;;;;13.80;10.93;;;5.40;65.20;;;;;;5044653;28;20456;-82
2021/03/21 11:53:56;;;;;;;17.67;10.90;;;5.30;64.80;;;;;;5045476;28;20466;-80
2021/03/21 11:56:32;;;;;;;16.50;13.40;;;5.10;64.80;;;;;;5039576;28;20462;-82
2021/03/21 11:59:07;;;;;;;15.27;12.03;;;5.20;65.10;;;;;;5040624;28;20534;-82
2021/03/21 12:01:48;;;;;;;14.20;10.63;;;5.10;65.20;;;;;;5044500;28;21139;-82
2021/03/21 12:04:23;;;;;;;13.40;11.57;;;5.10;65.40;;;;;;5044494;28;20509;-82
2021/03/21 12:06:54;;;;;;;14.77;11.63;;;4.80;65.50;;;;;;5045032;28;20473;-82
2021/03/21 12:09:29;;;;;;;15.73;10.80;;;4.90;65.80;;;;;;5040543;28;20546;-82
2021/03/21 12:12:00;;;;;;;14.53;11.63;;;5.00;66.00;;;;;;5043983;28;20462;-81
2021/03/21 12:14:49;;;;;;;14.13;10.70;;;5.00;66.10;;;;;;5039800;28;20826;-82
2021/03/21 12:17:41;;;;;;;16.40;9.97;;;4.90;66.50;;;;;;5044699;28;20993;-82
2021/03/21 12:20:43;;;;;;;14.30;11.57;;;4.70;67.20;;;;;;5043252;28;20451;-82
2021/03/21 12:23:40;;;;;;;13.60;10.90;;;4.80;68.50;;;;;;5005693;28;20506;-80
2021/03/21 12:26:27;;;;;;;15.20;11.70;;;4.70;69.20;;;;;;5051403;28;20460;-82
2021/03/21 12:29:00;;;;;;;15.20;12.70;;;4.80;69.90;;;;;;5046660;28;20463;-81
2021/03/21 12:31:31;;;;;;;14.63;11.90;;;4.80;70.40;;;;;;5055068;28;20567;-81
2021/03/21 12:33:59;;;;;;;15.27;11.30;;;4.80;71.60;;;;;;5053852;28;20463;-80
2021/03/21 12:36:29;;;;;;;15.70;11.00;;;5.00;72.60;;;;;;5060409;28;20466;-81
2021/03/21 12:39:20;;;;;;;12.70;11.40;;;5.00;72.80;;;;;;5065821;28;20458;-81
2021/03/21 12:41:48;;;;;;;14.13;11.23;;;5.20;72.30;;;;;;5056892;28;20488;-81
2021/03/21 12:44:25;;;;;;;13.23;10.83;;;5.30;72.50;;;;;;5049501;28;20447;-81
2021/03/21 12:47:00;;;;;;;12.30;10.20;;;5.40;72.50;;;;;;5044348;28;20458;-81
2021/03/21 12:49:48;;;;;;;12.00;9.47;;;5.80;72.00;;;;;;5071433;28;20470;-82
2021/03/21 12:52:26;;;;;;;10.20;7.83;;;6.40;71.40;;;;;;5071595;28;20451;-81
2021/03/21 12:54:54;;;;;;;12.43;9.80;;;6.60;69.80;;;;;;5066602;28;20513;-81
2021/03/21 12:57:23;;;;;;;11.40;10.13;;;6.50;70.00;;;;;;5054682;28;20482;-83
2021/03/21 12:59:57;;;;;;;12.20;9.70;;;6.60;70.30;;;;;;5040568;28;20462;-80
2021/03/21 13:02:26;;;;;;;9.87;8.23;;;6.90;70.00;;;;;;5044033;28;20538;-81
2021/03/21 13:04:54;;;;;;;10.03;9.00;;;6.90;69.30;;;;;;5042815;28;20456;-81
2021/03/21 13:07:23;;;;;;;10.07;9.00;;;7.20;70.40;;;;;;5045170;28;20467;-82
2021/03/21 13:09:54;;;;;;;10.00;8.40;;;7.40;69.40;;;;;;5032957;28;20460;-81
2021/03/21 13:12:22;;;;;;;9.87;8.53;;;7.20;68.80;;;;;;5058578;28;20472;-80
2021/03/21 13:14:52;;;;;;;9.47;8.50;;;7.00;69.20;;;;;;5049759;28;20451;-80
2021/03/21 13:17:19;;;;;;;11.87;9.80;;;6.80;69.10;;;;;;5049858;28;20496;-82
2021/03/21 13:19:46;;;;;;;12.40;8.53;;;6.50;69.70;;;;;;5054146;28;20471;-80
2021/03/21 13:22:20;;;;;;;8.90;8.00;;;7.00;69.50;;;;;;5052507;28;20450;-80
2021/03/21 13:24:47;;;;;;;11.07;8.67;;;6.90;69.60;;;;;;5058088;28;20442;-81
2021/03/21 13:27:14;;;;;;;10.83;8.97;;;7.00;69.00;;;;;;5052741;28;20494;-81
2021/03/21 13:29:41;;;;;;;9.57;8.27;;;7.00;69.30;;;;;;5047075;28;20459;-80
2021/03/21 13:32:18;;;;;;;9.93;8.70;;;6.90;69.00;;;;;;5046553;28;20458;-80
2021/03/21 13:34:55;;;;;;;10.93;7.57;;;7.10;69.30;;;;;;5057954;28;20452;-81